Time;durP1;ratioP1;P1;durP2;ratioP2;P2;SDS_P1;SDS_P2;PMS_P1;PMS_P2;Temp;Humidity;BMP_temperature;BMP_pressure;BME280_temperature;BME280_humidity;BME280_pressure;Samples;Min_cycle;Max_cycle;Signal;HPM_P1;HPM_P2
2021/07/05 00:02:21;;;;;;;3.50;1.70;;;18.30;99.90;;;;;;5098623;23;20559;-61
2021/07/05 00:05:20;;;;;;;2.80;1.90;;;18.30;99.90;;;;;;4916113;29;20555;-60
2021/07/05 00:10:16;;;;;;;5.20;2.10;;;18.30;99.90;;;;;;5008785;28;20468;-83
2021/07/05 00:12:45;;;;;;;1.87;1.50;;;18.20;99.90;;;;;;5011984;28;20432;-83
2021/07/05 00:15:13;;;;;;;1.87;1.70;;;18.20;99.90;;;;;;5011501;28;20420;-82
2021/07/05 00:17:40;;;;;;;2.20;1.90;;;18.30;99.90;;;;;;5011216;28;20977;-82
2021/07/05 00:20:07;;;;;;;1.60;1.50;;;18.30;99.90;;;;;;5010267;28;20440;-80
2021/07/05 00:22:33;;;;;;;2.77;1.77;;;18.40;99.90;;;;;;5012087;28;20495;-82
2021/07/05 00:24:58;;;;;;;2.77;2.03;;;18.50;99.90;;;;;;4994732;28;20456;-82
2021/07/05 00:27:24;;;;;;;2.50;1.80;;;18.40;99.90;;;;;;4992114;28;20213;-82
2021/07/05 00:29:50;;;;;;;7.60;2.30;;;18.40;99.90;;;;;;5010134;28;20200;-84
2021/07/05 00:32:27;;;;;;;2.90;2.00;;;18.30;99.90;;;;;;5007909;28;20205;-83
2021/07/05 00:34:53;;;;;;;2.40;2.20;;;18.40;99.90;;;;;;5012318;28;20222;-83
2021/07/05 00:37:18;;;;;;;2.70;1.77;;;18.50;99.90;;;;;;5015283;28;20464;-83
2021/07/05 00:39:44;;;;;;;2.10;1.90;;;18.60;99.90;;;;;;5016028;28;20193;-83
2021/07/05 00:42:10;;;;;;;2.00;1.80;;;18.50;99.90;;;;;;5014914;28;20205;-83
2021/07/05 00:44:37;;;;;;;2.53;2.00;;;18.40;99.90;;;;;;5018244;28;20227;-83
2021/07/05 00:47:03;;;;;;;2.17;1.97;;;18.40;99.90;;;;;;5012625;28;20288;-83
2021/07/05 00:49:29;;;;;;;2.50;1.87;;;18.50;99.90;;;;;;5010730;28;20427;-83
2021/07/05 00:51:55;;;;;;;1.90;1.70;;;18.70;99.90;;;;;;5012507;28;21006;-83
2021/07/05 00:54:21;;;;;;;5.70;4.53;;;18.50;99.90;;;;;;5011535;28;20201;-80
2021/07/05 00:56:46;;;;;;;4.90;1.93;;;18.30;99.90;;;;;;5013329;28;20456;-83
2021/07/05 00:59:14;;;;;;;2.03;1.83;;;18.20;99.90;;;;;;4993296;28;20442;-82
2021/07/05 01:01:39;;;;;;;4.27;3.03;;;18.20;99.90;;;;;;4994873;28;20247;-82
2021/07/05 01:04:05;;;;;;;2.43;1.87;;;18.20;99.90;;;;;;5012629;28;20505;-83
2021/07/05 01:06:31;;;;;;;3.73;1.93;;;18.40;99.90;;;;;;4997262;28;20205;-82
2021/07/05 01:08:56;;;;;;;2.53;1.90;;;18.40;99.90;;;;;;5017928;28;20257;-83
2021/07/05 01:11:23;;;;;;;2.20;2.00;;;18.50;99.90;;;;;;5013832;28;20197;-82
2021/07/05 01:13:48;;;;;;;1.93;1.73;;;18.50;99.90;;;;;;5015363;28;20259;-83
2021/07/05 01:16:14;;;;;;;3.70;3.30;;;18.40;99.90;;;;;;5017788;28;20452;-83
2021/07/05 01:18:40;;;;;;;1.93;1.83;;;18.50;99.90;;;;;;5012453;28;20216;-84
2021/07/05 01:21:06;;;;;;;2.67;1.90;;;18.50;99.90;;;;;;5018918;28;20214;-84
2021/07/05 01:23:31;;;;;;;2.67;2.10;;;18.50;99.90;;;;;;5001130;28;20189;-83
2021/07/05 01:25:57;;;;;;;1.90;1.80;;;18.60;99.90;;;;;;5018560;28;20666;-84
2021/07/05 01:28:24;;;;;;;2.03;1.83;;;18.60;99.90;;;;;;4999263;28;20193;-83
2021/07/05 01:30:50;;;;;;;2.33;2.13;;;18.60;99.90;;;;;;5015633;28;20458;-83
2021/07/05 01:33:16;;;;;;;5.70;2.10;;;18.40;99.90;;;;;;5015880;28;20420;-83
2021/07/05 01:35:43;;;;;;;2.47;2.00;;;18.50;99.90;;;;;;5015681;28;20220;-84
2021/07/05 01:38:11;;;;;;;4.57;2.53;;;18.40;99.90;;;;;;5017362;28;20460;-83
2021/07/05 01:40:37;;;;;;;4.93;2.40;;;18.30;99.90;;;;;;5017722;28;20490;-83
2021/07/05 01:43:04;;;;;;;3.63;2.40;;;18.00;99.90;;;;;;5013461;28;20433;-86
2021/07/05 01:45:32;;;;;;;3.43;3.13;;;18.00;99.90;;;;;;5018057;28;20209;-84
2021/07/05 01:47:59;;;;;;;2.50;2.30;;;18.20;99.90;;;;;;5015472;28;20475;-83
2021/07/05 01:50:25;;;;;;;2.13;1.70;;;18.20;99.90;;;;;;5014302;28;20565;-84
2021/07/05 01:52:52;;;;;;;3.80;2.10;;;18.30;99.90;;;;;;5017801;28;20482;-83
2021/07/05 01:55:23;;;;;;;3.30;2.37;;;18.20;99.90;;;;;;4999183;28;20885;-83
2021/07/05 01:57:49;;;;;;;4.67;2.10;;;18.10;99.90;;;;;;5019390;28;20969;-84
2021/07/05 02:00:18;;;;;;;4.07;2.23;;;18.10;99.90;;;;;;5016242;28;20488;-84
2021/07/05 02:02:47;;;;;;;2.20;2.00;;;18.10;99.90;;;;;;5017490;28;20193;-82
2021/07/05 02:05:16;;;;;;;2.90;2.10;;;18.00;99.90;;;;;;4998907;28;20461;-83
2021/07/05 02:07:42;;;;;;;4.60;2.10;;;18.10;99.90;;;;;;5015255;28;20458;-83
2021/07/05 02:10:12;;;;;;;2.57;2.37;;;18.10;99.90;;;;;;5016769;28;20432;-84
2021/07/05 02:12:39;;;;;;;3.80;2.43;;;18.20;99.90;;;;;;5015754;28;20440;-84
2021/07/05 02:15:12;;;;;;;3.03;2.00;;;18.00;99.90;;;;;;5015833;28;20437;-83
2021/07/05 02:17:39;;;;;;;3.57;2.00;;;18.00;99.90;;;;;;5020553;28;20823;-84
2021/07/05 02:20:07;;;;;;;4.17;2.63;;;18.20;99.90;;;;;;5014419;28;20465;-83
2021/07/05 02:22:33;;;;;;;5.40;2.10;;;18.10;99.90;;;;;;5018541;28;20495;-84
2021/07/05 02:25:00;;;;;;;3.37;2.93;;;18.10;99.90;;;;;;5018857;28;20460;-83
2021/07/05 02:27:26;;;;;;;5.63;2.23;;;18.10;99.90;;;;;;5013619;28;20209;-82
2021/07/05 02:29:51;;;;;;;2.40;2.00;;;18.10;99.90;;;;;;4997979;28;20515;-83
2021/07/05 02:32:17;;;;;;;3.97;1.90;;;18.10;99.90;;;;;;5020518;28;20197;-83
2021/07/05 02:34:43;;;;;;;2.50;2.30;;;18.10;99.90;;;;;;5019546;28;20185;-83
2021/07/05 02:37:08;;;;;;;3.13;2.10;;;17.90;99.90;;;;;;5023366;28;20482;-82
2021/07/05 02:39:34;;;;;;;2.83;2.50;;;18.10;99.90;;;;;;5024501;28;20176;-83
2021/07/05 02:42:00;;;;;;;2.47;2.27;;;18.30;99.90;;;;;;5022639;28;20193;-82
2021/07/05 02:44:25;;;;;;;3.40;2.63;;;18.20;99.90;;;;;;5024400;28;20271;-83
2021/07/05 02:46:51;;;;;;;5.50;2.53;;;18.30;99.90;;;;;;5020272;28;20213;-81
2021/07/05 02:49:16;;;;;;;3.40;2.70;;;18.40;99.90;;;;;;5023761;28;20177;-83
2021/07/05 02:51:42;;;;;;;4.07;2.80;;;18.30;99.90;;;;;;5020838;28;20255;-83
2021/07/05 02:54:08;;;;;;;6.83;3.50;;;18.30;99.90;;;;;;5005306;28;20197;-83
2021/07/05 02:56:36;;;;;;;10.13;3.97;;;18.40;99.90;;;;;;5005415;28;20208;-83
2021/07/05 02:59:02;;;;;;;7.43;3.87;;;18.60;99.90;;;;;;4984286;28;20197;-83
2021/07/05 03:01:28;;;;;;;10.07;4.40;;;18.60;99.90;;;;;;4998379;28;20444;-83
2021/07/05 03:03:53;;;;;;;8.10;3.90;;;18.50;99.90;;;;;;4998947;28;20225;-82
2021/07/05 03:06:19;;;;;;;7.47;3.00;;;18.60;99.90;;;;;;5003572;28;20217;-82
2021/07/05 03:08:45;;;;;;;3.43;2.60;;;18.60;99.90;;;;;;4998739;28;20205;-84
2021/07/05 03:11:12;;;;;;;6.37;2.67;;;18.50;99.90;;;;;;5005382;28;20312;-83
2021/07/05 03:13:38;;;;;;;11.30;3.03;;;18.50;99.90;;;;;;5003894;28;20200;-82
2021/07/05 03:16:03;;;;;;;4.17;2.77;;;18.50;99.90;;;;;;5004202;28;20424;-83
2021/07/05 03:18:29;;;;;;;6.17;2.80;;;18.60;99.90;;;;;;5007343;28;20193;-83
2021/07/05 03:20:55;;;;;;;3.87;2.80;;;18.50;99.90;;;;;;5003019;28;20197;-83
2021/07/05 03:23:25;;;;;;;4.23;2.67;;;18.40;99.90;;;;;;5002450;28;20579;-83
2021/07/05 03:25:52;;;;;;;3.60;2.67;;;18.50;99.90;;;;;;5007933;28;20212;-83
2021/07/05 03:28:18;;;;;;;9.27;2.80;;;18.50;99.90;;;;;;5005070;28;21122;-84
2021/07/05 03:30:45;;;;;;;3.70;2.50;;;18.50;99.90;;;;;;5013671;28;20470;-83
2021/07/05 03:33:15;;;;;;;7.23;2.93;;;18.40;99.90;;;;;;5005635;28;20513;-83
2021/07/05 03:35:41;;;;;;;3.40;2.80;;;18.60;99.90;;;;;;5019650;28;20483;-84
2021/07/05 03:38:08;;;;;;;3.50;2.83;;;18.60;99.90;;;;;;5005022;28;20478;-83
2021/07/05 03:40:35;;;;;;;3.53;2.33;;;18.60;99.90;;;;;;5007734;28;20437;-84
2021/07/05 03:43:03;;;;;;;4.43;2.10;;;18.50;99.90;;;;;;5005669;28;20482;-84
2021/07/05 03:45:32;;;;;;;2.87;2.33;;;18.40;99.90;;;;;;5007371;28;20464;-83
2021/07/05 03:47:59;;;;;;;5.23;2.70;;;18.50;99.90;;;;;;5007244;28;21148;-84
2021/07/05 03:50:27;;;;;;;4.37;2.80;;;18.40;99.90;;;;;;5009129;28;20485;-85
2021/07/05 03:52:53;;;;;;;2.60;2.40;;;18.50;99.90;;;;;;5010120;28;20443;-84
2021/07/05 03:55:22;;;;;;;4.40;2.40;;;18.50;99.90;;;;;;5009619;28;20575;-84
2021/07/05 03:57:49;;;;;;;2.90;2.30;;;18.50;99.90;;;;;;5010784;28;21187;-84
2021/07/05 04:00:28;;;;;;;3.20;2.50;;;18.50;99.90;;;;;;5011984;28;20436;-82
2021/07/05 04:02:54;;;;;;;3.33;2.80;;;18.40;99.90;;;;;;4987838;28;20576;-83
2021/07/05 04:05:20;;;;;;;4.90;2.40;;;18.50;99.90;;;;;;5005972;28;20559;-84
2021/07/05 04:07:46;;;;;;;3.63;2.90;;;18.50;99.90;;;;;;5007463;28;20288;-83
2021/07/05 04:10:13;;;;;;;3.50;2.40;;;18.50;99.90;;;;;;4992636;28;20448;-83
2021/07/05 04:12:40;;;;;;;9.07;2.90;;;18.50;99.90;;;;;;5010809;28;20188;-83
2021/07/05 04:15:06;;;;;;;2.80;2.60;;;18.50;99.90;;;;;;5008972;28;20448;-82
2021/07/05 04:17:32;;;;;;;3.07;2.70;;;18.60;99.90;;;;;;5007001;28;20501;-84
2021/07/05 04:19:58;;;;;;;4.47;2.80;;;18.50;99.90;;;;;;5008038;28;20451;-83
2021/07/05 04:22:23;;;;;;;3.27;2.20;;;18.50;99.90;;;;;;5001654;28;20204;-82
2021/07/05 04:24:51;;;;;;;2.70;2.40;;;18.50;99.90;;;;;;5008390;28;20472;-83
2021/07/05 04:27:17;;;;;;;3.73;2.03;;;18.50;99.90;;;;;;5007029;28;20213;-83
2021/07/05 04:29:43;;;;;;;5.07;2.40;;;18.60;99.90;;;;;;5003171;28;20436;-83
2021/07/05 04:32:10;;;;;;;2.63;2.40;;;18.50;99.90;;;;;;5010033;28;20468;-82
2021/07/05 04:34:36;;;;;;;4.77;2.33;;;18.50;99.90;;;;;;5008829;28;20436;-83
2021/07/05 04:37:02;;;;;;;2.80;2.60;;;18.40;99.90;;;;;;4979094;28;20444;-83
2021/07/05 04:39:28;;;;;;;2.97;2.60;;;18.40;99.90;;;;;;5007188;28;20879;-80
2021/07/05 04:41:54;;;;;;;5.67;2.80;;;18.40;99.90;;;;;;5007081;28;20440;-83
2021/07/05 04:44:20;;;;;;;5.80;2.70;;;18.40;99.90;;;;;;5010196;28;20689;-85
2021/07/05 04:46:50;;;;;;;4.90;2.40;;;18.40;99.90;;;;;;5003539;28;20465;-84
2021/07/05 04:49:20;;;;;;;8.60;2.60;;;18.40;99.90;;;;;;5003617;28;20519;-83
2021/07/05 04:51:47;;;;;;;4.17;2.50;;;18.40;99.90;;;;;;5010142;28;20428;-84
2021/07/05 04:54:13;;;;;;;3.50;2.77;;;18.40;99.90;;;;;;5008054;28;20428;-82
2021/07/05 04:56:39;;;;;;;3.27;2.63;;;18.40;99.90;;;;;;5013311;28;20468;-81
2021/07/05 04:59:06;;;;;;;3.33;2.50;;;18.40;99.90;;;;;;5014461;28;20424;-82
2021/07/05 05:01:33;;;;;;;2.20;2.00;;;18.40;99.90;;;;;;5012832;28;20193;-82
2021/07/05 05:03:59;;;;;;;4.53;2.20;;;18.30;99.90;;;;;;5011721;28;20504;-83
2021/07/05 05:06:27;;;;;;;3.07;2.43;;;18.30;99.90;;;;;;5012401;28;20460;-82
2021/07/05 05:08:54;;;;;;;3.07;2.50;;;18.30;99.90;;;;;;5012968;28;20251;-85
2021/07/05 05:11:20;;;;;;;3.00;2.53;;;18.40;99.90;;;;;;5013430;28;20447;-82
2021/07/05 05:13:46;;;;;;;4.10;2.40;;;18.30;99.90;;;;;;4998769;28;21035;-83
2021/07/05 05:16:12;;;;;;;6.03;3.00;;;18.20;99.90;;;;;;4997708;28;20506;-84
2021/07/05 05:18:39;;;;;;;2.60;2.40;;;18.20;99.90;;;;;;5014921;28;20189;-83
2021/07/05 05:21:05;;;;;;;3.47;2.73;;;18.30;99.90;;;;;;5012327;28;20538;-83
2021/07/05 05:23:30;;;;;;;3.20;2.70;;;18.30;99.90;;;;;;5013206;28;20435;-82
2021/07/05 05:25:56;;;;;;;4.37;2.23;;;18.30;99.90;;;;;;4999281;28;20236;-82
2021/07/05 05:28:22;;;;;;;4.13;3.00;;;18.40;99.90;;;;;;5015004;28;20272;-81
2021/07/05 05:30:48;;;;;;;7.30;2.80;;;18.40;99.90;;;;;;5015654;28;20200;-83
2021/07/05 05:33:14;;;;;;;3.80;2.40;;;18.30;99.90;;;;;;5016107;28;20184;-83
2021/07/05 05:35:40;;;;;;;3.13;2.83;;;18.30;99.90;;;;;;5000966;28;20436;-83
2021/07/05 05:38:06;;;;;;;4.70;2.33;;;18.30;99.90;;;;;;4998082;28;20220;-83
2021/07/05 05:40:32;;;;;;;3.37;2.60;;;18.30;99.90;;;;;;5013049;28;20928;-84
2021/07/05 05:42:58;;;;;;;4.10;3.00;;;18.40;99.90;;;;;;5016877;28;20198;-84
2021/07/05 05:45:24;;;;;;;3.43;2.73;;;18.40;99.90;;;;;;5019514;28;20468;-84
2021/07/05 05:47:50;;;;;;;3.20;2.47;;;18.30;99.90;;;;;;4998268;28;20483;-84
2021/07/05 05:50:16;;;;;;;6.03;2.70;;;18.40;99.90;;;;;;4994003;28;20540;-84
2021/07/05 05:52:42;;;;;;;5.00;2.50;;;18.40;99.90;;;;;;5011619;28;20221;-82
2021/07/05 05:55:08;;;;;;;3.00;2.60;;;18.40;99.90;;;;;;5011535;28;20434;-82
2021/07/05 05:57:36;;;;;;;2.47;2.27;;;18.40;99.90;;;;;;5017007;28;20223;-83
2021/07/05 06:00:09;;;;;;;3.83;2.47;;;18.30;99.90;;;;;;5013275;28;20471;-83
2021/07/05 06:02:38;;;;;;;3.10;2.40;;;18.40;99.90;;;;;;5016095;28;20436;-82
2021/07/05 06:05:04;;;;;;;4.00;2.30;;;18.40;99.90;;;;;;4998760;28;20468;-81
2021/07/05 06:07:30;;;;;;;3.83;2.43;;;18.40;99.90;;;;;;4998820;28;20451;-82
2021/07/05 06:09:58;;;;;;;4.90;2.67;;;18.50;99.90;;;;;;4995542;28;20463;-79
2021/07/05 06:12:24;;;;;;;4.13;2.53;;;18.50;99.90;;;;;;5009282;28;20194;-84
2021/07/05 06:14:49;;;;;;;3.93;2.30;;;18.40;99.90;;;;;;5008613;28;20440;-83
2021/07/05 06:17:15;;;;;;;2.97;2.63;;;18.50;99.90;;;;;;5015348;28;20272;-82
2021/07/05 06:19:42;;;;;;;6.27;2.80;;;18.60;99.90;;;;;;5008321;28;20224;-83
2021/07/05 06:22:17;;;;;;;3.30;2.57;;;18.50;99.90;;;;;;5013781;28;20370;-83
2021/07/05 06:24:46;;;;;;;7.20;2.70;;;18.50;99.90;;;;;;5016483;28;20459;-84
2021/07/05 06:27:13;;;;;;;2.97;2.70;;;18.60;99.90;;;;;;5011514;28;20459;-83
2021/07/05 06:29:38;;;;;;;4.70;2.63;;;18.60;99.90;;;;;;5011376;28;20455;-83
2021/07/05 06:32:04;;;;;;;6.10;3.80;;;18.80;99.90;;;;;;5011486;28;20432;-83
2021/07/05 06:34:30;;;;;;;4.27;3.10;;;18.80;99.90;;;;;;5012464;28;20201;-83
2021/07/05 06:36:56;;;;;;;5.13;3.50;;;18.90;99.90;;;;;;5014553;28;20456;-84
2021/07/05 06:39:21;;;;;;;4.50;2.50;;;18.90;99.90;;;;;;5014083;28;20197;-83
2021/07/05 06:41:47;;;;;;;4.63;3.03;;;18.90;99.90;;;;;;5011033;28;20998;-81
2021/07/05 06:44:13;;;;;;;3.10;2.77;;;18.90;99.90;;;;;;5016132;28;20208;-83
2021/07/05 06:46:39;;;;;;;3.30;3.00;;;19.00;99.90;;;;;;5016330;28;20690;-83
2021/07/05 06:49:05;;;;;;;7.10;2.90;;;19.20;99.90;;;;;;5011880;28;20463;-82
2021/07/05 06:51:30;;;;;;;3.20;2.90;;;19.20;99.90;;;;;;5013769;28;20182;-83
2021/07/05 06:53:56;;;;;;;3.23;2.40;;;19.10;99.90;;;;;;5009114;28;20424;-84
2021/07/05 06:56:21;;;;;;;3.50;2.90;;;19.10;99.90;;;;;;5012274;28;20208;-83
2021/07/05 06:58:50;;;;;;;3.53;2.63;;;19.00;99.90;;;;;;5007289;28;20301;-83
2021/07/05 07:01:15;;;;;;;6.40;2.60;;;19.10;99.90;;;;;;5009749;28;20193;-82
2021/07/05 07:03:41;;;;;;;2.80;2.50;;;19.00;99.90;;;;;;5009955;28;20447;-83
2021/07/05 07:06:07;;;;;;;3.10;2.40;;;19.10;99.90;;;;;;5006655;28;20221;-82
2021/07/05 07:08:33;;;;;;;4.67;2.50;;;19.20;99.90;;;;;;5011290;28;20268;-82
2021/07/05 07:10:58;;;;;;;3.80;2.50;;;19.30;99.90;;;;;;4977829;28;20190;-83
2021/07/05 07:13:27;;;;;;;2.70;2.50;;;19.40;99.90;;;;;;4981739;28;20698;-83
2021/07/05 07:15:56;;;;;;;4.60;2.57;;;19.50;99.90;;;;;;5001579;28;20320;-82
2021/07/05 07:18:43;;;;;;;4.07;3.17;;;19.40;99.90;;;;;;4997788;28;20499;-83
2021/07/05 07:21:07;;;;;;;3.57;2.40;;;19.40;99.90;;;;;;5013284;28;20451;-83
2021/07/05 07:23:36;;;;;;;2.57;2.37;;;19.50;99.90;;;;;;5014461;28;20466;-82
2021/07/05 07:26:03;;;;;;;2.80;2.50;;;19.50;99.90;;;;;;4983697;28;20640;-84
2021/07/05 07:28:32;;;;;;;2.60;2.40;;;19.70;99.90;;;;;;5013606;28;20433;-81
2021/07/05 07:30:57;;;;;;;4.00;2.93;;;19.60;99.90;;;;;;5000907;28;20447;-83
2021/07/05 07:33:23;;;;;;;3.30;2.33;;;19.70;99.90;;;;;;5016412;28;20438;-82
2021/07/05 07:35:50;;;;;;;3.37;2.50;;;19.60;99.90;;;;;;5013563;28;20204;-82
2021/07/05 07:38:16;;;;;;;3.53;2.20;;;19.60;99.90;;;;;;5015164;28;20232;-83
2021/07/05 07:40:43;;;;;;;3.10;2.47;;;19.60;99.90;;;;;;5015296;28;20448;-84
2021/07/05 07:43:08;;;;;;;3.10;2.43;;;19.60;99.90;;;;;;5012630;28;20260;-83
2021/07/05 07:45:34;;;;;;;3.30;2.80;;;19.60;99.90;;;;;;5014137;28;20558;-82
2021/07/05 07:48:00;;;;;;;3.20;2.53;;;19.60;99.90;;;;;;4995608;28;20221;-83
2021/07/05 07:50:26;;;;;;;2.60;2.03;;;19.70;99.90;;;;;;5000635;28;20440;-84
2021/07/05 07:52:56;;;;;;;4.73;2.40;;;19.70;99.90;;;;;;4997145;28;20245;-82
2021/07/05 07:55:21;;;;;;;3.70;2.23;;;19.80;99.90;;;;;;5012995;28;20655;-84
2021/07/05 07:57:47;;;;;;;5.00;2.20;;;19.80;99.90;;;;;;4993735;28;20490;-82
2021/07/05 08:00:15;;;;;;;5.03;2.63;;;19.80;99.90;;;;;;4997716;28;20205;-82
2021/07/05 08:02:44;;;;;;;2.40;2.20;;;19.80;99.90;;;;;;5014568;28;20279;-83
2021/07/05 08:05:10;;;;;;;4.30;2.40;;;20.00;99.90;;;;;;4998715;28;20475;-81
2021/07/05 08:07:40;;;;;;;4.17;2.53;;;19.90;99.90;;;;;;5013980;28;20471;-83
2021/07/05 08:10:10;;;;;;;2.20;2.00;;;19.90;99.90;;;;;;5009424;28;20440;-84
2021/07/05 08:12:36;;;;;;;3.07;2.00;;;19.80;99.90;;;;;;5017411;28;20428;-84
2021/07/05 08:15:06;;;;;;;3.50;2.53;;;19.80;99.90;;;;;;5016025;28;20441;-84
2021/07/05 08:17:32;;;;;;;2.20;2.00;;;19.70;99.90;;;;;;5015102;28;20610;-80
2021/07/05 08:19:57;;;;;;;2.17;1.97;;;19.70;99.90;;;;;;5015863;28;20873;-82
2021/07/05 08:22:29;;;;;;;5.30;2.73;;;19.80;99.90;;;;;;5005869;28;20213;-81
2021/07/05 08:24:55;;;;;;;2.93;2.63;;;19.90;99.90;;;;;;5010212;28;20572;-80
2021/07/05 08:27:22;;;;;;;2.83;2.13;;;20.00;99.90;;;;;;5012014;28;20467;-81
2021/07/05 08:29:47;;;;;;;2.67;2.00;;;20.10;99.90;;;;;;5008905;28;20444;-79
2021/07/05 08:32:13;;;;;;;2.50;2.30;;;20.00;99.90;;;;;;5004570;28;20543;-78
2021/07/05 08:34:39;;;;;;;5.03;2.33;;;19.90;99.90;;;;;;5006894;28;20205;-80
2021/07/05 08:37:04;;;;;;;2.87;2.00;;;19.90;99.90;;;;;;4990099;28;20232;-79
2021/07/05 08:39:30;;;;;;;7.00;2.27;;;19.80;99.90;;;;;;5007345;28;20252;-79
2021/07/05 08:41:56;;;;;;;2.30;2.10;;;19.80;99.90;;;;;;5004680;28;20194;-78
2021/07/05 08:44:23;;;;;;;3.33;2.20;;;19.80;99.90;;;;;;5004012;28;20197;-79
2021/07/05 08:46:50;;;;;;;3.30;1.80;;;19.70;99.90;;;;;;5004566;28;20205;-78
2021/07/05 08:49:17;;;;;;;3.37;2.10;;;19.80;99.90;;;;;;4999630;28;20449;-79
2021/07/05 08:51:43;;;;;;;2.70;1.90;;;19.90;99.90;;;;;;5005350;28;20956;-79
2021/07/05 08:54:08;;;;;;;5.43;2.40;;;20.00;99.90;;;;;;5006410;28;20459;-79
2021/07/05 08:56:34;;;;;;;2.53;1.83;;;19.90;99.90;;;;;;5008978;28;20213;-79
2021/07/05 08:59:00;;;;;;;3.03;2.00;;;20.00;99.90;;;;;;5004652;28;20192;-79
2021/07/05 09:01:25;;;;;;;2.40;2.20;;;19.90;99.90;;;;;;5004246;28;20191;-79
2021/07/05 09:03:51;;;;;;;3.20;2.20;;;19.90;99.90;;;;;;4985878;28;20706;-80
2021/07/05 09:06:19;;;;;;;2.47;1.57;;;19.90;99.90;;;;;;4952042;28;20668;-78
2021/07/05 09:08:56;;;;;;;2.80;1.77;;;19.90;99.90;;;;;;4994508;28;20225;-80
2021/07/05 09:11:41;;;;;;;4.07;1.83;;;19.80;99.90;;;;;;5003240;28;20519;-79
2021/07/05 09:14:18;;;;;;;1.97;1.83;;;19.80;99.90;;;;;;5002902;28;20455;-79
2021/07/05 09:16:47;;;;;;;2.50;2.03;;;19.90;99.90;;;;;;5000737;28;20467;-81
2021/07/05 09:19:23;;;;;;;2.33;2.13;;;19.90;99.90;;;;;;5001632;28;20791;-79
2021/07/05 09:22:01;;;;;;;6.93;2.10;;;19.90;99.90;;;;;;5005393;28;20440;-79
2021/07/05 09:24:38;;;;;;;3.20;2.20;;;20.00;99.90;;;;;;5004549;28;20526;-79
2021/07/05 09:27:26;;;;;;;1.83;1.30;;;20.10;99.90;;;;;;5004217;28;20482;-79
2021/07/05 09:29:52;;;;;;;2.10;1.60;;;20.10;99.90;;;;;;5002513;28;20437;-79
2021/07/05 09:32:29;;;;;;;1.97;1.70;;;20.20;99.90;;;;;;5005933;28;20494;-80
2021/07/05 09:34:59;;;;;;;2.50;2.10;;;20.10;99.90;;;;;;4998690;28;20459;-80
2021/07/05 09:37:30;;;;;;;2.13;1.87;;;20.10;99.90;;;;;;5001549;28;20466;-79
2021/07/05 09:40:11;;;;;;;6.20;2.10;;;20.20;99.90;;;;;;5002516;28;20502;-80
2021/07/05 09:42:50;;;;;;;7.20;2.27;;;20.40;99.90;;;;;;5006503;28;20427;-78
2021/07/05 09:45:30;;;;;;;3.60;2.00;;;20.20;99.90;;;;;;5004941;28;20471;-78
2021/07/05 09:48:25;;;;;;;1.90;1.70;;;20.30;99.90;;;;;;5003698;28;20443;-79
2021/07/05 09:51:00;;;;;;;2.80;2.07;;;20.30;99.90;;;;;;5007411;28;20905;-78
2021/07/05 09:53:35;;;;;;;2.40;2.20;;;20.50;99.90;;;;;;5005324;28;20501;-78
2021/07/05 09:56:23;;;;;;;4.23;2.10;;;20.50;99.90;;;;;;5002892;28;20459;-77
2021/07/05 09:58:57;;;;;;;3.57;2.10;;;20.60;99.90;;;;;;5004434;28;20535;-80
2021/07/05 10:01:44;;;;;;;2.50;2.00;;;20.80;99.90;;;;;;5004959;28;20575;-78
2021/07/05 10:04:14;;;;;;;2.47;2.23;;;20.50;99.90;;;;;;5001014;28;20467;-78
2021/07/05 10:06:46;;;;;;;2.67;2.47;;;20.50;99.90;;;;;;5004405;28;20462;-77
2021/07/05 10:09:16;;;;;;;1.70;1.60;;;20.90;99.90;;;;;;5004951;28;20448;-79
2021/07/05 10:11:42;;;;;;;3.73;2.47;;;21.10;99.90;;;;;;5007747;28;20448;-78
2021/07/05 10:14:28;;;;;;;2.40;1.93;;;21.40;99.90;;;;;;4990750;28;20518;-78
2021/07/05 10:16:53;;;;;;;3.10;1.90;;;21.60;99.90;;;;;;5006201;28;20308;-79
2021/07/05 10:19:19;;;;;;;2.70;2.00;;;21.70;99.90;;;;;;5002844;28;20547;-80
2021/07/05 10:21:45;;;;;;;2.27;1.70;;;21.70;99.90;;;;;;5004986;28;20233;-79
2021/07/05 10:24:11;;;;;;;2.20;1.63;;;21.80;99.90;;;;;;5006172;28;20190;-78
2021/07/05 10:26:38;;;;;;;2.60;1.73;;;21.80;99.90;;;;;;5003552;28;20271;-79
2021/07/05 10:29:06;;;;;;;3.27;2.43;;;21.70;99.90;;;;;;4994910;28;20432;-79
2021/07/05 10:31:33;;;;;;;2.13;1.93;;;21.90;99.90;;;;;;5002226;28;20929;-78
2021/07/05 10:34:01;;;;;;;5.43;2.00;;;22.00;99.90;;;;;;4976965;28;20451;-77
2021/07/05 10:36:31;;;;;;;5.80;1.93;;;22.00;99.90;;;;;;5004069;28;20520;-79
2021/07/05 10:39:01;;;;;;;2.00;1.80;;;21.80;99.90;;;;;;5006544;28;20485;-81
2021/07/05 10:41:38;;;;;;;3.67;2.10;;;21.80;99.90;;;;;;4989664;28;20558;-80
2021/07/05 10:44:08;;;;;;;2.10;1.87;;;21.90;99.90;;;;;;5006948;28;20448;-82
2021/07/05 10:46:44;;;;;;;3.20;1.83;;;22.00;99.90;;;;;;5005634;28;20521;-80
2021/07/05 10:49:28;;;;;;;2.00;1.80;;;22.00;99.90;;;;;;5005118;28;21064;-79
2021/07/05 10:51:56;;;;;;;3.03;2.00;;;22.10;99.90;;;;;;5004695;28;20440;-79
2021/07/05 10:54:52;;;;;;;2.83;1.50;;;22.30;99.90;;;;;;4990206;28;20448;-81
2021/07/05 10:57:19;;;;;;;3.30;2.07;;;22.20;99.90;;;;;;4987081;28;20471;-79
2021/07/05 10:59:51;;;;;;;2.77;1.60;;;22.10;99.90;;;;;;5002790;28;20490;-80
2021/07/05 11:02:39;;;;;;;2.67;1.70;;;22.00;99.90;;;;;;5002148;28;21024;-79
2021/07/05 11:05:27;;;;;;;1.80;1.50;;;21.80;99.90;;;;;;4980031;28;20462;-80
2021/07/05 11:07:55;;;;;;;1.63;1.53;;;21.70;99.90;;;;;;5001169;28;20782;-81
2021/07/05 11:10:30;;;;;;;1.77;1.60;;;21.50;99.90;;;;;;5005089;28;20508;-83
2021/07/05 11:13:05;;;;;;;2.07;1.67;;;21.50;99.90;;;;;;4999826;28;20444;-80
2021/07/05 11:16:09;;;;;;;1.50;1.40;;;21.40;99.90;;;;;;5005140;28;20491;-79
2021/07/05 11:18:45;;;;;;;1.60;1.47;;;21.60;99.90;;;;;;5002899;28;20454;-80
2021/07/05 11:21:22;;;;;;;3.67;1.70;;;21.50;99.90;;;;;;5000835;28;20440;-80
2021/07/05 11:24:06;;;;;;;1.60;1.50;;;21.40;99.90;;;;;;4997896;28;21370;-79
2021/07/05 11:26:38;;;;;;;1.50;1.40;;;21.30;99.90;;;;;;5004945;28;20482;-80
2021/07/05 11:29:20;;;;;;;3.80;1.50;;;21.40;99.90;;;;;;5000857;28;20471;-80
2021/07/05 11:31:58;;;;;;;1.67;1.57;;;21.40;99.90;;;;;;4984994;28;20440;-81
2021/07/05 11:34:33;;;;;;;4.30;1.60;;;21.40;99.90;;;;;;5007286;28;20519;-79
2021/07/05 11:37:11;;;;;;;2.50;1.67;;;21.40;99.90;;;;;;5008570;28;20450;-81
2021/07/05 11:39:42;;;;;;;1.87;1.60;;;21.40;99.90;;;;;;5010746;28;20436;-82
2021/07/05 11:42:08;;;;;;;3.03;1.70;;;21.40;99.90;;;;;;5010448;28;20431;-80
2021/07/05 11:44:49;;;;;;;1.80;1.70;;;21.70;99.90;;;;;;5006575;28;20468;-80
2021/07/05 11:47:42;;;;;;;2.40;1.47;;;21.80;99.90;;;;;;5002355;28;20981;-80
2021/07/05 11:50:25;;;;;;;2.77;1.73;;;22.10;99.90;;;;;;5006755;28;20937;-82
2021/07/05 11:52:59;;;;;;;1.70;1.47;;;22.40;99.90;;;;;;4989361;28;20987;-80
2021/07/05 11:55:29;;;;;;;1.63;1.33;;;22.10;99.90;;;;;;5003915;28;20454;-80
2021/07/05 11:57:57;;;;;;;1.57;1.47;;;22.10;99.90;;;;;;5003772;28;20521;-81
2021/07/05 12:00:25;;;;;;;3.33;1.63;;;22.10;99.90;;;;;;4991046;28;20439;-81
2021/07/05 12:03:01;;;;;;;1.60;1.50;;;22.20;99.90;;;;;;5007734;28;20435;-81
2021/07/05 12:05:27;;;;;;;1.77;1.60;;;22.30;99.90;;;;;;5005054;28;20459;-81
2021/07/05 12:08:09;;;;;;;2.40;1.80;;;22.60;99.90;;;;;;4986967;28;20879;-80
2021/07/05 12:10:37;;;;;;;1.97;1.77;;;22.70;99.90;;;;;;5004905;28;20255;-81
2021/07/05 12:13:26;;;;;;;2.03;1.60;;;22.60;99.90;;;;;;5005623;28;20437;-80
2021/07/05 12:15:57;;;;;;;2.03;1.60;;;22.50;99.90;;;;;;4999081;28;20630;-80
2021/07/05 12:18:23;;;;;;;2.10;1.60;;;22.10;99.90;;;;;;5005691;28;20478;-80
2021/07/05 12:20:57;;;;;;;1.77;1.60;;;21.80;99.90;;;;;;5008501;28;20455;-81
2021/07/05 12:26:49;;;;;;;1.80;1.70;;;24.50;99.90;;;;;;5004794;28;20554;-81
2021/07/05 12:29:24;;;;;;;1.53;1.43;;;26.20;99.90;;;;;;5003128;28;20933;-80
2021/07/05 12:31:52;;;;;;;2.00;1.67;;;26.50;99.90;;;;;;5004331;28;20442;-80
2021/07/05 12:34:57;;;;;;;2.07;1.60;;;26.70;99.90;;;;;;4998092;28;20787;-81
2021/07/05 12:37:27;;;;;;;2.57;1.80;;;26.90;99.90;;;;;;4981079;28;20951;-82
2021/07/05 12:40:18;;;;;;;1.93;1.73;;;27.10;99.90;;;;;;5004817;28;20439;-81
2021/07/05 12:42:52;;;;;;;1.63;1.53;;;27.20;99.90;;;;;;5004033;28;20459;-81
2021/07/05 12:45:17;;;;;;;1.70;1.60;;;26.40;99.90;;;;;;5003584;28;20471;-80
2021/07/05 12:48:16;;;;;;;2.70;1.80;;;25.40;99.90;;;;;;5003954;28;20473;-82
2021/07/05 12:50:47;;;;;;;2.13;1.93;;;25.30;99.90;;;;;;5007070;28;20227;-80
2021/07/05 12:53:29;;;;;;;2.13;1.93;;;25.90;99.90;;;;;;5005585;28;20432;-81
2021/07/05 12:56:13;;;;;;;2.20;2.00;;;25.70;99.90;;;;;;5012772;28;20464;-81
2021/07/05 12:58:44;;;;;;;2.60;2.27;;;25.70;99.90;;;;;;5021371;28;20416;-80
2021/07/05 13:01:14;;;;;;;1.90;1.70;;;25.50;99.90;;;;;;5023039;28;20424;-80
2021/07/05 13:04:02;;;;;;;2.07;1.90;;;25.50;99.90;;;;;;5008731;28;20433;-79